Airport View

Enter AWOS ICAO identifier for current METAR.

ex. KFNL

KEQA 241030Z AUTO 34005KT 10SM CLR M02/M03 A3000 RMK AO2

24 Jan 2019 10:37

Frequency: 120.875

Phone: 316-322-8095

Other Area AWOS: K3AU - K1K1 - KAAO - KBEC

TAF KIAB 241000Z 2410/2516 33006KT 9999 SCT100 QNH2994INS BECMG 2415/2416 36020G25KT 9999 SCT020 BKN080 QNH3023INS BECMG 2500/2501 35006KT 9999 SKC QNH3029INS BECMG 2508/2509 19006KT 9999 SKC QNH3029INS TX02/2419Z TNM07/2508Z